sensor_id;sensor_type;location;lat;lon;timestamp;P1;durP1;ratioP1;P2;durP2;ratioP2
7479;SDS011;3781;42.272;22.658;2022-10-28T00:01:16;0.77;;;0.77;;
7479;SDS011;3781;42.272;22.658;2022-10-28T00:03:45;1.03;;;0.83;;
7479;SDS011;3781;42.272;22.658;2022-10-28T00:06:13;2.27;;;1.00;;
7479;SDS011;3781;42.272;22.658;2022-10-28T00:08:41;5.10;;;1.17;;
7479;SDS011;3781;42.272;22.658;2022-10-28T00:11:09;4.07;;;1.37;;
7479;SDS011;3781;42.272;22.658;2022-10-28T00:13:38;1.20;;;1.00;;
7479;SDS011;3781;42.272;22.658;2022-10-28T00:16:08;1.07;;;0.90;;
7479;SDS011;3781;42.272;22.658;2022-10-28T00:18:35;3.03;;;1.10;;
7479;SDS011;3781;42.272;22.658;2022-10-28T00:21:03;0.97;;;0.90;;
7479;SDS011;3781;42.272;22.658;2022-10-28T00:23:32;0.77;;;0.60;;
7479;SDS011;3781;42.272;22.658;2022-10-28T00:26:06;0.60;;;0.60;;
7479;SDS011;3781;42.272;22.658;2022-10-28T00:28:34;1.47;;;0.80;;
7479;SDS011;3781;42.272;22.658;2022-10-28T00:31:06;0.30;;;0.30;;
7479;SDS011;3781;42.272;22.658;2022-10-28T00:33:33;3.60;;;0.70;;
7479;SDS011;3781;42.272;22.658;2022-10-28T00:36:10;0.63;;;0.63;;
7479;SDS011;3781;42.272;22.658;2022-10-28T00:38:39;1.30;;;0.77;;
7479;SDS011;3781;42.272;22.658;2022-10-28T00:41:06;3.90;;;1.40;;
7479;SDS011;3781;42.272;22.658;2022-10-28T00:43:37;1.27;;;0.90;;
7479;SDS011;3781;42.272;22.658;2022-10-28T00:46:10;1.20;;;1.10;;
7479;SDS011;3781;42.272;22.658;2022-10-28T00:48:43;1.57;;;1.47;;
7479;SDS011;3781;42.272;22.658;2022-10-28T00:51:14;1.83;;;1.20;;
7479;SDS011;3781;42.272;22.658;2022-10-28T00:53:43;2.23;;;1.37;;
7479;SDS011;3781;42.272;22.658;2022-10-28T00:56:12;9.10;;;1.30;;
7479;SDS011;3781;42.272;22.658;2022-10-28T00:58:40;0.93;;;0.83;;
7479;SDS011;3781;42.272;22.658;2022-10-28T01:01:09;2.47;;;1.70;;
7479;SDS011;3781;42.272;22.658;2022-10-28T01:03:35;1.97;;;1.40;;
7479;SDS011;3781;42.272;22.658;2022-10-28T01:06:03;4.00;;;1.47;;
7479;SDS011;3781;42.272;22.658;2022-10-28T01:08:30;3.43;;;1.47;;
7479;SDS011;3781;42.272;22.658;2022-10-28T01:11:01;2.13;;;1.00;;
7479;SDS011;3781;42.272;22.658;2022-10-28T01:13:43;1.17;;;1.03;;
7479;SDS011;3781;42.272;22.658;2022-10-28T01:16:22;3.97;;;1.10;;
7479;SDS011;3781;42.272;22.658;2022-10-28T01:18:57;2.90;;;2.10;;
7479;SDS011;3781;42.272;22.658;2022-10-28T01:21:42;2.60;;;2.07;;
7479;SDS011;3781;42.272;22.658;2022-10-28T01:24:32;2.33;;;1.40;;
7479;SDS011;3781;42.272;22.658;2022-10-28T01:27:30;4.43;;;1.60;;
7479;SDS011;3781;42.272;22.658;2022-10-28T01:30:21;1.17;;;1.07;;
7479;SDS011;3781;42.272;22.658;2022-10-28T01:32:53;3.97;;;0.60;;
7479;SDS011;3781;42.272;22.658;2022-10-28T01:35:25;1.83;;;1.30;;
7479;SDS011;3781;42.272;22.658;2022-10-28T01:40:56;1.93;;;0.77;;
7479;SDS011;3781;42.272;22.658;2022-10-28T01:43:32;5.67;;;0.77;;
7479;SDS011;3781;42.272;22.658;2022-10-28T01:46:04;0.43;;;0.43;;
7479;SDS011;3781;42.272;22.658;2022-10-28T01:48:40;1.60;;;0.60;;
7479;SDS011;3781;42.272;22.658;2022-10-28T01:51:12;2.30;;;0.73;;
7479;SDS011;3781;42.272;22.658;2022-10-28T01:53:46;2.33;;;1.13;;
7479;SDS011;3781;42.272;22.658;2022-10-28T01:56:16;0.50;;;0.50;;
7479;SDS011;3781;42.272;22.658;2022-10-28T01:58:48;0.40;;;0.40;;
7479;SDS011;3781;42.272;22.658;2022-10-28T02:01:17;2.17;;;0.87;;
7479;SDS011;3781;42.272;22.658;2022-10-28T02:03:46;3.03;;;0.90;;
7479;SDS011;3781;42.272;22.658;2022-10-28T02:06:14;1.70;;;0.90;;
7479;SDS011;3781;42.272;22.658;2022-10-28T02:11:58;1.17;;;1.00;;
7479;SDS011;3781;42.272;22.658;2022-10-28T02:14:44;1.87;;;1.30;;
7479;SDS011;3781;42.272;22.658;2022-10-28T02:17:25;1.23;;;0.50;;
7479;SDS011;3781;42.272;22.658;2022-10-28T02:20:06;1.10;;;0.90;;
7479;SDS011;3781;42.272;22.658;2022-10-28T02:22:39;5.07;;;0.87;;
7479;SDS011;3781;42.272;22.658;2022-10-28T02:25:12;1.00;;;0.90;;
7479;SDS011;3781;42.272;22.658;2022-10-28T02:27:43;2.00;;;0.93;;
7479;SDS011;3781;42.272;22.658;2022-10-28T02:30:17;1.80;;;0.83;;
7479;SDS011;3781;42.272;22.658;2022-10-28T02:32:47;0.73;;;0.73;;
7479;SDS011;3781;42.272;22.658;2022-10-28T02:35:21;1.33;;;1.03;;
7479;SDS011;3781;42.272;22.658;2022-10-28T02:37:57;5.13;;;0.93;;
7479;SDS011;3781;42.272;22.658;2022-10-28T02:40:28;1.70;;;1.60;;
7479;SDS011;3781;42.272;22.658;2022-10-28T02:42:59;5.17;;;1.83;;
7479;SDS011;3781;42.272;22.658;2022-10-28T02:45:30;2.00;;;1.00;;
7479;SDS011;3781;42.272;22.658;2022-10-28T02:48:02;2.73;;;1.03;;
7479;SDS011;3781;42.272;22.658;2022-10-28T02:50:37;1.60;;;1.23;;
7479;SDS011;3781;42.272;22.658;2022-10-28T02:53:10;4.50;;;1.67;;
7479;SDS011;3781;42.272;22.658;2022-10-28T02:55:41;2.20;;;1.40;;
7479;SDS011;3781;42.272;22.658;2022-10-28T02:58:09;0.60;;;0.60;;
7479;SDS011;3781;42.272;22.658;2022-10-28T03:00:36;1.80;;;1.00;;
7479;SDS011;3781;42.272;22.658;2022-10-28T03:03:03;2.20;;;0.97;;
7479;SDS011;3781;42.272;22.658;2022-10-28T03:05:30;0.70;;;0.70;;
7479;SDS011;3781;42.272;22.658;2022-10-28T03:07:58;1.50;;;1.10;;
7479;SDS011;3781;42.272;22.658;2022-10-28T03:10:25;1.80;;;1.03;;
7479;SDS011;3781;42.272;22.658;2022-10-28T03:12:51;1.05;;;0.90;;
7479;SDS011;3781;42.272;22.658;2022-10-28T03:15:18;1.40;;;1.30;;
7479;SDS011;3781;42.272;22.658;2022-10-28T03:17:45;11.10;;;1.40;;
7479;SDS011;3781;42.272;22.658;2022-10-28T03:20:11;1.00;;;0.70;;
7479;SDS011;3781;42.272;22.658;2022-10-28T03:22:41;2.30;;;1.60;;
7479;SDS011;3781;42.272;22.658;2022-10-28T03:25:09;2.05;;;1.50;;
7479;SDS011;3781;42.272;22.658;2022-10-28T03:27:38;3.00;;;1.20;;
7479;SDS011;3781;42.272;22.658;2022-10-28T03:30:05;1.10;;;1.00;;
7479;SDS011;3781;42.272;22.658;2022-10-28T03:32:32;2.43;;;1.40;;
7479;SDS011;3781;42.272;22.658;2022-10-28T03:34:59;2.30;;;1.05;;
7479;SDS011;3781;42.272;22.658;2022-10-28T03:37:26;1.90;;;1.10;;
7479;SDS011;3781;42.272;22.658;2022-10-28T03:39:52;0.45;;;0.45;;
7479;SDS011;3781;42.272;22.658;2022-10-28T03:42:20;6.90;;;1.65;;
7479;SDS011;3781;42.272;22.658;2022-10-28T03:44:47;1.50;;;1.40;;
7479;SDS011;3781;42.272;22.658;2022-10-28T03:47:14;1.43;;;1.33;;
7479;SDS011;3781;42.272;22.658;2022-10-28T03:49:40;3.00;;;1.30;;
7479;SDS011;3781;42.272;22.658;2022-10-28T03:52:07;2.00;;;1.80;;
7479;SDS011;3781;42.272;22.658;2022-10-28T03:54:34;0.80;;;0.80;;
7479;SDS011;3781;42.272;22.658;2022-10-28T03:57:01;3.13;;;1.40;;
7479;SDS011;3781;42.272;22.658;2022-10-28T03:59:29;1.00;;;1.00;;
7479;SDS011;3781;42.272;22.658;2022-10-28T04:01:55;1.50;;;1.40;;
7479;SDS011;3781;42.272;22.658;2022-10-28T04:04:22;4.20;;;1.80;;
7479;SDS011;3781;42.272;22.658;2022-10-28T04:06:49;2.80;;;1.80;;
7479;SDS011;3781;42.272;22.658;2022-10-28T04:09:15;1.57;;;1.30;;
7479;SDS011;3781;42.272;22.658;2022-10-28T04:11:42;1.90;;;1.60;;
7479;SDS011;3781;42.272;22.658;2022-10-28T04:14:09;3.70;;;1.47;;
7479;SDS011;3781;42.272;22.658;2022-10-28T04:16:37;1.95;;;1.80;;
7479;SDS011;3781;42.272;22.658;2022-10-28T04:19:04;8.70;;;1.20;;
7479;SDS011;3781;42.272;22.658;2022-10-28T04:21:30;5.70;;;1.90;;
7479;SDS011;3781;42.272;22.658;2022-10-28T04:23:57;1.75;;;1.25;;
7479;SDS011;3781;42.272;22.658;2022-10-28T04:26:24;1.90;;;1.80;;
7479;SDS011;3781;42.272;22.658;2022-10-28T04:28:51;2.45;;;1.35;;
7479;SDS011;3781;42.272;22.658;2022-10-28T04:31:17;0.90;;;0.90;;
7479;SDS011;3781;42.272;22.658;2022-10-28T04:33:45;1.30;;;1.20;;
7479;SDS011;3781;42.272;22.658;2022-10-28T04:36:12;2.10;;;2.00;;
7479;SDS011;3781;42.272;22.658;2022-10-28T04:38:39;2.45;;;2.00;;
7479;SDS011;3781;42.272;22.658;2022-10-28T04:41:07;2.05;;;1.90;;
7479;SDS011;3781;42.272;22.658;2022-10-28T04:43:36;3.90;;;2.37;;
7479;SDS011;3781;42.272;22.658;2022-10-28T04:46:03;5.10;;;1.90;;
7479;SDS011;3781;42.272;22.658;2022-10-28T04:48:30;1.05;;;0.95;;
7479;SDS011;3781;42.272;22.658;2022-10-28T04:50:58;1.70;;;1.10;;
7479;SDS011;3781;42.272;22.658;2022-10-28T04:53:25;1.73;;;1.03;;
7479;SDS011;3781;42.272;22.658;2022-10-28T04:58:21;1.20;;;1.10;;
7479;SDS011;3781;42.272;22.658;2022-10-28T05:00:48;2.70;;;1.30;;
7479;SDS011;3781;42.272;22.658;2022-10-28T05:03:15;3.70;;;1.70;;
7479;SDS011;3781;42.272;22.658;2022-10-28T05:05:41;1.40;;;1.30;;
7479;SDS011;3781;42.272;22.658;2022-10-28T05:08:09;4.90;;;2.00;;
7479;SDS011;3781;42.272;22.658;2022-10-28T05:10:36;1.60;;;1.50;;
7479;SDS011;3781;42.272;22.658;2022-10-28T05:13:03;1.47;;;1.37;;
7479;SDS011;3781;42.272;22.658;2022-10-28T05:15:30;1.10;;;1.00;;
7479;SDS011;3781;42.272;22.658;2022-10-28T05:17:56;1.95;;;1.75;;
7479;SDS011;3781;42.272;22.658;2022-10-28T05:20:23;3.35;;;1.85;;
7479;SDS011;3781;42.272;22.658;2022-10-28T05:25:20;1.50;;;1.10;;
7479;SDS011;3781;42.272;22.658;2022-10-28T05:27:47;1.67;;;1.37;;
7479;SDS011;3781;42.272;22.658;2022-10-28T05:30:14;1.30;;;0.90;;
7479;SDS011;3781;42.272;22.658;2022-10-28T05:32:41;3.20;;;1.70;;
7479;SDS011;3781;42.272;22.658;2022-10-28T05:35:08;1.93;;;1.17;;
7479;SDS011;3781;42.272;22.658;2022-10-28T05:37:35;1.33;;;1.23;;
7479;SDS011;3781;42.272;22.658;2022-10-28T05:40:02;2.63;;;1.33;;
7479;SDS011;3781;42.272;22.658;2022-10-28T05:42:31;0.90;;;0.85;;
7479;SDS011;3781;42.272;22.658;2022-10-28T05:44:58;3.40;;;1.07;;
7479;SDS011;3781;42.272;22.658;2022-10-28T05:47:24;5.40;;;2.43;;
7479;SDS011;3781;42.272;22.658;2022-10-28T05:49:51;5.87;;;1.63;;
7479;SDS011;3781;42.272;22.658;2022-10-28T05:52:18;1.90;;;1.43;;
7479;SDS011;3781;42.272;22.658;2022-10-28T05:54:45;3.67;;;2.30;;
7479;SDS011;3781;42.272;22.658;2022-10-28T05:57:11;2.10;;;1.70;;
7479;SDS011;3781;42.272;22.658;2022-10-28T05:59:39;5.23;;;1.63;;
7479;SDS011;3781;42.272;22.658;2022-10-28T06:02:08;2.13;;;1.93;;
7479;SDS011;3781;42.272;22.658;2022-10-28T06:04:38;4.60;;;2.23;;
7479;SDS011;3781;42.272;22.658;2022-10-28T06:07:05;2.93;;;1.87;;
7479;SDS011;3781;42.272;22.658;2022-10-28T06:09:31;1.87;;;1.37;;
7479;SDS011;3781;42.272;22.658;2022-10-28T06:11:58;3.67;;;1.70;;
7479;SDS011;3781;42.272;22.658;2022-10-28T06:14:25;1.90;;;1.50;;
7479;SDS011;3781;42.272;22.658;2022-10-28T06:16:53;1.50;;;1.10;;
7479;SDS011;3781;42.272;22.658;2022-10-28T06:19:20;2.20;;;1.95;;
7479;SDS011;3781;42.272;22.658;2022-10-28T06:21:46;2.65;;;2.45;;
7479;SDS011;3781;42.272;22.658;2022-10-28T06:24:13;4.63;;;2.77;;
7479;SDS011;3781;42.272;22.658;2022-10-28T06:26:40;5.83;;;3.60;;
7479;SDS011;3781;42.272;22.658;2022-10-28T06:29:07;4.57;;;3.30;;
7479;SDS011;3781;42.272;22.658;2022-10-28T06:31:37;7.73;;;4.03;;
7479;SDS011;3781;42.272;22.658;2022-10-28T06:34:05;4.57;;;3.80;;
7479;SDS011;3781;42.272;22.658;2022-10-28T06:36:34;4.00;;;2.90;;
7479;SDS011;3781;42.272;22.658;2022-10-28T06:39:00;7.43;;;2.90;;
7479;SDS011;3781;42.272;22.658;2022-10-28T06:41:27;8.70;;;5.07;;
7479;SDS011;3781;42.272;22.658;2022-10-28T06:43:54;9.10;;;5.60;;
7479;SDS011;3781;42.272;22.658;2022-10-28T06:46:21;10.83;;;5.90;;
7479;SDS011;3781;42.272;22.658;2022-10-28T06:48:47;9.10;;;5.23;;
7479;SDS011;3781;42.272;22.658;2022-10-28T06:51:16;9.80;;;6.57;;
7479;SDS011;3781;42.272;22.658;2022-10-28T06:53:42;6.93;;;5.40;;
7479;SDS011;3781;42.272;22.658;2022-10-28T06:56:09;17.27;;;5.60;;
7479;SDS011;3781;42.272;22.658;2022-10-28T06:58:36;15.73;;;6.33;;
7479;SDS011;3781;42.272;22.658;2022-10-28T07:01:03;9.40;;;5.70;;
7479;SDS011;3781;42.272;22.658;2022-10-28T07:03:30;8.60;;;5.83;;
7479;SDS011;3781;42.272;22.658;2022-10-28T07:05:57;10.83;;;7.13;;
7479;SDS011;3781;42.272;22.658;2022-10-28T07:08:26;10.10;;;6.50;;
7479;SDS011;3781;42.272;22.658;2022-10-28T07:10:54;9.57;;;5.20;;
7479;SDS011;3781;42.272;22.658;2022-10-28T07:13:21;8.07;;;4.80;;
7479;SDS011;3781;42.272;22.658;2022-10-28T07:15:49;6.63;;;5.00;;
7479;SDS011;3781;42.272;22.658;2022-10-28T07:18:17;6.83;;;4.70;;
7479;SDS011;3781;42.272;22.658;2022-10-28T07:20:44;9.50;;;4.60;;
7479;SDS011;3781;42.272;22.658;2022-10-28T07:23:11;10.43;;;4.80;;
7479;SDS011;3781;42.272;22.658;2022-10-28T07:25:39;7.20;;;4.63;;
7479;SDS011;3781;42.272;22.658;2022-10-28T07:28:07;6.87;;;4.50;;
7479;SDS011;3781;42.272;22.658;2022-10-28T07:30:34;8.37;;;5.90;;
7479;SDS011;3781;42.272;22.658;2022-10-28T07:33:01;4.72;;;4.03;;
7479;SDS011;3781;42.272;22.658;2022-10-28T07:35:29;7.25;;;4.97;;
7479;SDS011;3781;42.272;22.658;2022-10-28T07:37:56;5.95;;;4.53;;
7479;SDS011;3781;42.272;22.658;2022-10-28T07:40:23;9.45;;;5.50;;
7479;SDS011;3781;42.272;22.658;2022-10-28T07:45:18;5.75;;;4.35;;
7479;SDS011;3781;42.272;22.658;2022-10-28T07:47:45;4.22;;;3.63;;
7479;SDS011;3781;42.272;22.658;2022-10-28T08:29:21;5.10;;;3.13;;
7479;SDS011;3781;42.272;22.658;2022-10-28T08:31:48;5.95;;;3.80;;
7479;SDS011;3781;42.272;22.658;2022-10-28T08:34:16;5.32;;;4.35;;
7479;SDS011;3781;42.272;22.658;2022-10-28T08:36:43;4.78;;;4.15;;
7479;SDS011;3781;42.272;22.658;2022-10-28T08:39:10;6.20;;;3.95;;
7479;SDS011;3781;42.272;22.658;2022-10-28T08:41:37;5.07;;;3.00;;
7479;SDS011;3781;42.272;22.658;2022-10-28T08:44:20;8.52;;;3.65;;
7479;SDS011;3781;42.272;22.658;2022-10-28T08:47:06;11.30;;;3.85;;
7479;SDS011;3781;42.272;22.658;2022-10-28T08:49:42;4.40;;;3.08;;
7479;SDS011;3781;42.272;22.658;2022-10-28T08:52:15;4.40;;;2.95;;
7479;SDS011;3781;42.272;22.658;2022-10-28T08:54:50;3.13;;;2.90;;
7479;SDS011;3781;42.272;22.658;2022-10-28T08:57:22;3.78;;;2.47;;
7479;SDS011;3781;42.272;22.658;2022-10-28T08:59:56;5.00;;;2.30;;
7479;SDS011;3781;42.272;22.658;2022-10-28T09:02:25;2.50;;;2.13;;
7479;SDS011;3781;42.272;22.658;2022-10-28T09:04:57;8.73;;;2.47;;
7479;SDS011;3781;42.272;22.658;2022-10-28T09:07:27;3.72;;;2.17;;
7479;SDS011;3781;42.272;22.658;2022-10-28T09:09:54;2.20;;;2.03;;
7479;SDS011;3781;42.272;22.658;2022-10-28T09:12:28;2.97;;;2.00;;
7479;SDS011;3781;42.272;22.658;2022-10-28T09:15:11;4.00;;;2.40;;
7479;SDS011;3781;42.272;22.658;2022-10-28T09:17:50;2.35;;;1.70;;
7479;SDS011;3781;42.272;22.658;2022-10-28T09:20:20;3.50;;;1.77;;
7479;SDS011;3781;42.272;22.658;2022-10-28T09:22:54;2.88;;;2.05;;
7479;SDS011;3781;42.272;22.658;2022-10-28T09:25:24;3.05;;;2.10;;
7479;SDS011;3781;42.272;22.658;2022-10-28T09:28:05;2.20;;;1.70;;
7479;SDS011;3781;42.272;22.658;2022-10-28T09:30:45;1.95;;;1.35;;
7479;SDS011;3781;42.272;22.658;2022-10-28T09:35:58;1.10;;;1.00;;
7479;SDS011;3781;42.272;22.658;2022-10-28T09:38:27;1.05;;;0.95;;
7479;SDS011;3781;42.272;22.658;2022-10-28T09:40:57;2.25;;;1.60;;
7479;SDS011;3781;42.272;22.658;2022-10-28T09:43:29;1.67;;;1.17;;
7479;SDS011;3781;42.272;22.658;2022-10-28T09:45:59;1.30;;;1.20;;
7479;SDS011;3781;42.272;22.658;2022-10-28T09:48:32;1.48;;;1.23;;
7479;SDS011;3781;42.272;22.658;2022-10-28T09:51:03;1.08;;;1.08;;
7479;SDS011;3781;42.272;22.658;2022-10-28T09:56:02;1.48;;;1.38;;
7479;SDS011;3781;42.272;22.658;2022-10-28T09:58:30;1.50;;;1.10;;
7479;SDS011;3781;42.272;22.658;2022-10-28T10:00:58;1.10;;;0.88;;
7479;SDS011;3781;42.272;22.658;2022-10-28T10:03:25;1.15;;;1.10;;
7479;SDS011;3781;42.272;22.658;2022-10-28T10:05:53;1.65;;;1.25;;
7479;SDS011;3781;42.272;22.658;2022-10-28T11:57:17;0.75;;;0.75;;
7479;SDS011;3781;42.272;22.658;2022-10-28T11:59:59;1.05;;;0.60;;
7479;SDS011;3781;42.272;22.658;2022-10-28T12:02:43;1.88;;;1.30;;
7479;SDS011;3781;42.272;22.658;2022-10-28T12:05:21;2.08;;;1.02;;
7479;SDS011;3781;42.272;22.658;2022-10-28T12:07:57;0.93;;;0.93;;
7479;SDS011;3781;42.272;22.658;2022-10-28T12:10:50;0.40;;;0.32;;
7479;SDS011;3781;42.272;22.658;2022-10-28T12:13:32;3.13;;;0.77;;
7479;SDS011;3781;42.272;22.658;2022-10-28T12:16:06;0.70;;;0.70;;
7479;SDS011;3781;42.272;22.658;2022-10-28T12:18:40;0.73;;;0.73;;
7479;SDS011;3781;42.272;22.658;2022-10-28T12:21:13;2.35;;;1.77;;
7479;SDS011;3781;42.272;22.658;2022-10-28T12:23:45;1.13;;;0.65;;
7479;SDS011;3781;42.272;22.658;2022-10-28T12:26:14;0.55;;;0.52;;
7479;SDS011;3781;42.272;22.658;2022-10-28T12:28:45;0.50;;;0.50;;
7479;SDS011;3781;42.272;22.658;2022-10-28T12:31:17;0.68;;;0.52;;
7479;SDS011;3781;42.272;22.658;2022-10-28T12:33:48;1.20;;;1.10;;
7479;SDS011;3781;42.272;22.658;2022-10-28T12:36:19;0.40;;;0.40;;
7479;SDS011;3781;42.272;22.658;2022-10-28T12:38:55;0.85;;;0.65;;
7479;SDS011;3781;42.272;22.658;2022-10-28T12:41:26;2.30;;;0.68;;
7479;SDS011;3781;42.272;22.658;2022-10-28T12:44:10;0.70;;;0.63;;
7479;SDS011;3781;42.272;22.658;2022-10-28T12:46:44;0.60;;;0.60;;
7479;SDS011;3781;42.272;22.658;2022-10-28T12:49:17;1.15;;;1.13;;
7479;SDS011;3781;42.272;22.658;2022-10-28T12:51:47;1.42;;;0.73;;
7479;SDS011;3781;42.272;22.658;2022-10-28T12:54:16;1.05;;;1.05;;
7479;SDS011;3781;42.272;22.658;2022-10-28T12:56:49;0.80;;;0.80;;
7479;SDS011;3781;42.272;22.658;2022-10-28T12:59:25;0.55;;;0.55;;
7479;SDS011;3781;42.272;22.658;2022-10-28T13:01:56;2.28;;;0.30;;
7479;SDS011;3781;42.272;22.658;2022-10-28T13:04:25;3.35;;;1.25;;
7479;SDS011;3781;42.272;22.658;2022-10-28T13:06:57;2.33;;;1.23;;
7479;SDS011;3781;42.272;22.658;2022-10-28T13:09:55;2.47;;;1.77;;
7479;SDS011;3781;42.272;22.658;2022-10-28T13:12:38;2.05;;;1.38;;
7479;SDS011;3781;42.272;22.658;2022-10-28T13:15:25;0.65;;;0.65;;
7479;SDS011;3781;42.272;22.658;2022-10-28T13:18:16;0.63;;;0.63;;
7479;SDS011;3781;42.272;22.658;2022-10-28T13:21:00;2.47;;;0.60;;
7479;SDS011;3781;42.272;22.658;2022-10-28T13:23:36;1.17;;;0.73;;
7479;SDS011;3781;42.272;22.658;2022-10-28T13:26:10;1.02;;;1.02;;
7479;SDS011;3781;42.272;22.658;2022-10-28T13:28:43;3.35;;;1.20;;
7479;SDS011;3781;42.272;22.658;2022-10-28T13:31:14;1.33;;;0.98;;
7479;SDS011;3781;42.272;22.658;2022-10-28T13:33:46;0.68;;;0.50;;
7479;SDS011;3781;42.272;22.658;2022-10-28T13:36:18;1.35;;;0.80;;
7479;SDS011;3781;42.272;22.658;2022-10-28T13:38:51;0.65;;;0.47;;
7479;SDS011;3781;42.272;22.658;2022-10-28T13:41:30;0.55;;;0.55;;
7479;SDS011;3781;42.272;22.658;2022-10-28T13:43:59;0.73;;;0.57;;
7479;SDS011;3781;42.272;22.658;2022-10-28T13:52:45;0.70;;;0.70;;
7479;SDS011;3781;42.272;22.658;2022-10-28T13:55:41;1.08;;;0.98;;
7479;SDS011;3781;42.272;22.658;2022-10-28T13:58:18;0.50;;;0.50;;
7479;SDS011;3781;42.272;22.658;2022-10-28T14:00:47;0.60;;;0.60;;
7479;SDS011;3781;42.272;22.658;2022-10-28T14:03:15;1.23;;;0.68;;
7479;SDS011;3781;42.272;22.658;2022-10-28T14:05:52;0.63;;;0.63;;
7479;SDS011;3781;42.272;22.658;2022-10-28T14:08:24;1.25;;;1.15;;
7479;SDS011;3781;42.272;22.658;2022-10-28T14:11:02;7.28;;;3.67;;
7479;SDS011;3781;42.272;22.658;2022-10-28T14:13:31;21.13;;;8.25;;
7479;SDS011;3781;42.272;22.658;2022-10-28T14:16:15;26.48;;;11.95;;
7479;SDS011;3781;42.272;22.658;2022-10-28T14:18:52;28.90;;;11.40;;
7479;SDS011;3781;42.272;22.658;2022-10-28T14:21:24;17.08;;;9.15;;
7479;SDS011;3781;42.272;22.658;2022-10-28T14:24:07;19.48;;;7.95;;
7479;SDS011;3781;42.272;22.658;2022-10-28T14:30:09;9.27;;;3.53;;
7479;SDS011;3781;42.272;22.658;2022-10-28T14:32:39;6.53;;;2.70;;
7479;SDS011;3781;42.272;22.658;2022-10-28T14:35:16;5.53;;;3.63;;
7479;SDS011;3781;42.272;22.658;2022-10-28T14:37:56;10.77;;;5.70;;
7479;SDS011;3781;42.272;22.658;2022-10-28T14:40:38;3.42;;;3.13;;
7479;SDS011;3781;42.272;22.658;2022-10-28T14:43:26;3.97;;;2.30;;
7479;SDS011;3781;42.272;22.658;2022-10-28T14:46:11;4.85;;;3.33;;
7479;SDS011;3781;42.272;22.658;2022-10-28T14:48:49;3.08;;;2.13;;
7479;SDS011;3781;42.272;22.658;2022-10-28T14:51:18;1.50;;;1.40;;
7479;SDS011;3781;42.272;22.658;2022-10-28T14:53:48;4.40;;;2.80;;
7479;SDS011;3781;42.272;22.658;2022-10-28T14:56:20;17.37;;;4.63;;
7479;SDS011;3781;42.272;22.658;2022-10-28T14:58:48;22.37;;;7.57;;
7479;SDS011;3781;42.272;22.658;2022-10-28T15:01:20;4.73;;;2.83;;
7479;SDS011;3781;42.272;22.658;2022-10-28T15:03:49;6.30;;;2.20;;
7479;SDS011;3781;42.272;22.658;2022-10-28T15:06:23;4.53;;;2.07;;
7479;SDS011;3781;42.272;22.658;2022-10-28T15:08:52;6.87;;;2.10;;
7479;SDS011;3781;42.272;22.658;2022-10-28T15:11:20;1.87;;;1.47;;
7479;SDS011;3781;42.272;22.658;2022-10-28T15:13:49;1.50;;;1.40;;
7479;SDS011;3781;42.272;22.658;2022-10-28T15:16:18;1.23;;;1.00;;
7479;SDS011;3781;42.272;22.658;2022-10-28T15:18:46;1.97;;;1.87;;
7479;SDS011;3781;42.272;22.658;2022-10-28T15:21:16;0.67;;;0.57;;
7479;SDS011;3781;42.272;22.658;2022-10-28T15:23:44;2.03;;;0.87;;
7479;SDS011;3781;42.272;22.658;2022-10-28T15:26:12;2.67;;;1.20;;
7479;SDS011;3781;42.272;22.658;2022-10-28T15:28:40;0.83;;;0.83;;
7479;SDS011;3781;42.272;22.658;2022-10-28T15:31:08;1.20;;;0.93;;
7479;SDS011;3781;42.272;22.658;2022-10-28T15:33:36;0.50;;;0.50;;
7479;SDS011;3781;42.272;22.658;2022-10-28T15:36:05;0.90;;;0.90;;
7479;SDS011;3781;42.272;22.658;2022-10-28T15:38:38;1.27;;;1.00;;
7479;SDS011;3781;42.272;22.658;2022-10-28T15:44:20;2.03;;;1.43;;
7479;SDS011;3781;42.272;22.658;2022-10-28T15:46:51;3.53;;;1.87;;
7479;SDS011;3781;42.272;22.658;2022-10-28T15:49:31;4.60;;;1.60;;
7479;SDS011;3781;42.272;22.658;2022-10-28T15:54:52;0.70;;;0.70;;
7479;SDS011;3781;42.272;22.658;2022-10-28T15:57:19;3.83;;;1.77;;
7479;SDS011;3781;42.272;22.658;2022-10-28T15:59:48;4.97;;;2.47;;
7479;SDS011;3781;42.272;22.658;2022-10-28T16:02:48;5.70;;;2.93;;
7479;SDS011;3781;42.272;22.658;2022-10-28T16:08:16;4.90;;;3.10;;
7479;SDS011;3781;42.272;22.658;2022-10-28T16:10:46;10.90;;;3.73;;
7479;SDS011;3781;42.272;22.658;2022-10-28T16:13:16;11.57;;;2.97;;
7479;SDS011;3781;42.272;22.658;2022-10-28T16:15:49;4.70;;;2.30;;
7479;SDS011;3781;42.272;22.658;2022-10-28T16:18:19;5.00;;;2.83;;
7479;SDS011;3781;42.272;22.658;2022-10-28T16:20:47;6.47;;;3.87;;
7479;SDS011;3781;42.272;22.658;2022-10-28T16:23:15;2.80;;;2.07;;
7479;SDS011;3781;42.272;22.658;2022-10-28T16:25:44;4.60;;;1.93;;
7479;SDS011;3781;42.272;22.658;2022-10-28T16:28:14;2.10;;;1.57;;
7479;SDS011;3781;42.272;22.658;2022-10-28T16:30:45;2.83;;;2.13;;
7479;SDS011;3781;42.272;22.658;2022-10-28T16:33:13;2.73;;;1.00;;
7479;SDS011;3781;42.272;22.658;2022-10-28T16:35:40;1.17;;;1.10;;
7479;SDS011;3781;42.272;22.658;2022-10-28T16:38:08;5.03;;;1.60;;
7479;SDS011;3781;42.272;22.658;2022-10-28T16:40:38;6.87;;;4.50;;
7479;SDS011;3781;42.272;22.658;2022-10-28T16:43:07;1.30;;;1.20;;
7479;SDS011;3781;42.272;22.658;2022-10-28T16:45:40;10.43;;;3.30;;
7479;SDS011;3781;42.272;22.658;2022-10-28T16:48:08;3.97;;;2.17;;
7479;SDS011;3781;42.272;22.658;2022-10-28T16:50:38;1.53;;;1.33;;
7479;SDS011;3781;42.272;22.658;2022-10-28T16:53:05;1.23;;;1.13;;
7479;SDS011;3781;42.272;22.658;2022-10-28T16:55:32;1.83;;;1.10;;
7479;SDS011;3781;42.272;22.658;2022-10-28T16:57:59;4.93;;;1.97;;
7479;SDS011;3781;42.272;22.658;2022-10-28T17:00:25;2.10;;;1.23;;
7479;SDS011;3781;42.272;22.658;2022-10-28T17:02:52;5.00;;;3.00;;
7479;SDS011;3781;42.272;22.658;2022-10-28T17:05:20;2.23;;;2.00;;
7479;SDS011;3781;42.272;22.658;2022-10-28T17:07:49;4.57;;;2.23;;
7479;SDS011;3781;42.272;22.658;2022-10-28T17:10:19;1.73;;;1.23;;
7479;SDS011;3781;42.272;22.658;2022-10-28T17:12:47;2.13;;;1.93;;
7479;SDS011;3781;42.272;22.658;2022-10-28T17:15:14;5.57;;;2.27;;
7479;SDS011;3781;42.272;22.658;2022-10-28T17:17:41;3.27;;;2.17;;
7479;SDS011;3781;42.272;22.658;2022-10-28T17:20:08;1.27;;;1.20;;
7479;SDS011;3781;42.272;22.658;2022-10-28T17:22:35;0.97;;;0.83;;
7479;SDS011;3781;42.272;22.658;2022-10-28T17:25:06;2.77;;;1.70;;
7479;SDS011;3781;42.272;22.658;2022-10-28T17:27:33;3.50;;;2.83;;
7479;SDS011;3781;42.272;22.658;2022-10-28T17:30:00;3.33;;;2.27;;
7479;SDS011;3781;42.272;22.658;2022-10-28T17:32:27;3.80;;;2.13;;
7479;SDS011;3781;42.272;22.658;2022-10-28T17:34:53;8.10;;;1.43;;
7479;SDS011;3781;42.272;22.658;2022-10-28T17:37:20;3.93;;;2.97;;
7479;SDS011;3781;42.272;22.658;2022-10-28T17:39:47;4.50;;;1.43;;
7479;SDS011;3781;42.272;22.658;2022-10-28T17:42:15;2.80;;;2.20;;
7479;SDS011;3781;42.272;22.658;2022-10-28T17:44:42;4.90;;;1.97;;
7479;SDS011;3781;42.272;22.658;2022-10-28T17:47:08;1.23;;;0.87;;
7479;SDS011;3781;42.272;22.658;2022-10-28T17:49:36;7.60;;;1.43;;
7479;SDS011;3781;42.272;22.658;2022-10-28T17:52:03;3.27;;;1.43;;
7479;SDS011;3781;42.272;22.658;2022-10-28T17:54:29;2.10;;;1.07;;
7479;SDS011;3781;42.272;22.658;2022-10-28T17:56:56;3.03;;;2.43;;
7479;SDS011;3781;42.272;22.658;2022-10-28T17:59:24;2.50;;;1.27;;
7479;SDS011;3781;42.272;22.658;2022-10-28T18:01:51;3.20;;;1.60;;
7479;SDS011;3781;42.272;22.658;2022-10-28T18:04:18;2.87;;;1.47;;
7479;SDS011;3781;42.272;22.658;2022-10-28T18:06:50;1.13;;;1.03;;
7479;SDS011;3781;42.272;22.658;2022-10-28T18:09:17;3.57;;;1.33;;
7479;SDS011;3781;42.272;22.658;2022-10-28T18:11:44;6.00;;;2.37;;
7479;SDS011;3781;42.272;22.658;2022-10-28T18:14:11;1.73;;;1.57;;
7479;SDS011;3781;42.272;22.658;2022-10-28T18:16:39;5.63;;;2.17;;
7479;SDS011;3781;42.272;22.658;2022-10-28T18:19:06;9.30;;;2.57;;
7479;SDS011;3781;42.272;22.658;2022-10-28T18:21:34;7.57;;;3.63;;
7479;SDS011;3781;42.272;22.658;2022-10-28T18:24:01;2.60;;;1.27;;
7479;SDS011;3781;42.272;22.658;2022-10-28T18:26:31;5.80;;;2.50;;